WWCO2: Wewoka Creek nr Wetumka OK

Data processed at Sat Mar 10 2018 23:01


All information presented herein is the property of the government of the United States of America and may be revised or deleted at any time without prior notice.
Dissemination of this information without the expressed written consent of the Public Affairs Office, Tulsa District U.S. Army Corps of Engineers is strictly prohibited.
These data are gathered electronically and, as presented, have not undergone any form of quality control. These data are not guaranteed to be valid or correct.
Go to home page.
Go to station list.

Downstream station:


Previous Day
Next Day
Current Day
    
SHEF ID:       WWCO2     Wewoka Creek nr Wetumka OK
STATION TYPE:  

               PRECIP     STAGE  RIV-FLOW   VOLTAGE  BAT-LOAD
                   in        ft       cfs      volt      volt
              Ccp-Rev   Ccp-Rev   Ccp-Rev   Ccp-Rev   Ccp-Rev
(US/Central)
03/08 00:00      0.00      6.80       201     12.49     12.49
03/08 01:00      0.00      6.79       199     12.49     12.49
03/08 02:00      0.00      6.78       197     12.49     12.41
03/08 03:00      0.00      6.76       193     12.49     12.41
03/08 04:00      0.00      6.76       193     12.41     12.41
03/08 05:00      0.00      6.75       191     12.41     12.41
03/08 06:00      0.00      6.73       187     12.41     12.41
03/08 07:00      0.00      6.73       187     12.41     12.41
03/08 08:00      0.00      6.70       182     12.41     12.41
03/08 09:00      0.00      6.69       180     13.44     13.29
03/08 10:00      0.00      6.67       176     13.29     13.37
03/08 11:00      0.00      6.67       176     13.29     13.44
03/08 12:00      0.00      6.65       172     13.29     13.29
03/08 13:00      0.00      6.63       169     13.92     13.68
03/08 14:00      0.00      6.63       169     13.37     13.44
03/08 15:00      0.00      6.61       165     13.37     12.97
03/08 16:00      0.00      6.60       163     13.60     13.29
03/08 17:00      0.00      6.60       163     13.29     13.21
03/08 18:00      0.00      6.59       162     13.60     12.89
03/08 19:00      0.00      6.58       160     12.73     12.73
03/08 20:00      0.00      6.57       158     12.65     12.65
03/08 21:00      0.00      6.55       155     12.65     12.57
03/08 22:00      0.00      6.55       155     12.65     12.57
03/08 23:00      0.00      6.53       152     12.57     12.57